createdAt,value
2023-01-18T00:01:48.797Z,90577.81
2023-01-18T00:06:55.489Z,90577.70
2023-01-18T00:12:02.434Z,90574.81
2023-01-18T00:17:09.258Z,90569.99
2023-01-18T00:22:16.212Z,90579.59
2023-01-18T00:27:22.898Z,90580.70
2023-01-18T00:32:30.153Z,90578.64
2023-01-18T00:37:38.691Z,90541.14
2023-01-18T00:43:03.061Z,90521.28
2023-01-18T00:48:08.855Z,90515.44
2023-01-18T00:53:15.933Z,90519.76
2023-01-18T00:58:22.787Z,90549.59
2023-01-18T01:03:31.369Z,90568.97
2023-01-18T01:08:38.118Z,90599.27
2023-01-18T01:14:02.530Z,90614.94
2023-01-18T01:19:27.377Z,90643.76
2023-01-18T01:24:52.223Z,90646.21
2023-01-18T01:29:59.228Z,90660.94
2023-01-18T01:35:06.584Z,90688.70
2023-01-18T01:40:15.136Z,90685.95
2023-01-18T01:45:24.278Z,90677.66
2023-01-18T01:50:37.402Z,90682.41
2023-01-18T01:55:44.012Z,90689.61
2023-01-18T02:00:50.973Z,90678.60
2023-01-18T02:06:02.581Z,90666.45
2023-01-18T02:11:09.451Z,90670.05
2023-01-18T02:16:50.610Z,90663.50
2023-01-18T02:22:01.589Z,90659.11
2023-01-18T02:27:37.972Z,90665.99
2023-01-18T02:33:09.778Z,90663.28
2023-01-18T02:38:20.977Z,90644.79
2023-01-18T02:43:46.091Z,90648.99
2023-01-18T02:48:53.586Z,90636.74
2023-01-18T02:54:00.627Z,90630.08
2023-01-18T02:59:20.049Z,90616.95
2023-01-18T03:04:31.341Z,90616.52
2023-01-18T03:09:38.968Z,90642.58
2023-01-18T03:15:10.264Z,90641.80
2023-01-18T03:20:25.386Z,90633.15
2023-01-18T03:25:41.462Z,90643.12
2023-01-18T03:31:07.145Z,90654.05
2023-01-18T03:36:33.129Z,90655.61
2023-01-18T03:41:43.861Z,90674.23
2023-01-18T03:46:50.828Z,90649.49
2023-01-18T03:52:20.114Z,90648.59
2023-01-18T03:57:40.129Z,90656.40
2023-01-18T04:02:49.631Z,90666.89
2023-01-18T04:07:56.443Z,90681.20
2023-01-18T04:13:03.087Z,90682.51
2023-01-18T04:18:09.831Z,90680.30
2023-01-18T04:23:16.641Z,90696.13
2023-01-18T04:28:26.316Z,90696.20
2023-01-18T04:33:33.055Z,90686.69
2023-01-18T04:38:39.755Z,90685.47
2023-01-18T04:43:46.432Z,90683.22
2023-01-18T04:48:54.338Z,90684.42
2023-01-18T04:54:04.171Z,90691.92
2023-01-18T04:59:13.889Z,90710.03
2023-01-18T05:04:20.616Z,90708.76
2023-01-18T05:09:27.639Z,90715.50
2023-01-18T05:14:35.249Z,90725.56
2023-01-18T05:19:42.007Z,90736.98
2023-01-18T05:24:48.751Z,90747.42
2023-01-18T05:29:55.429Z,90759.61
2023-01-18T05:35:02.970Z,90766.02
2023-01-18T05:40:11.667Z,90773.89
2023-01-18T05:45:18.583Z,90773.82
2023-01-18T05:50:25.269Z,90781.08
2023-01-18T05:55:31.979Z,90786.03
2023-01-18T06:00:39.417Z,90792.91
2023-01-18T06:05:46.184Z,90782.84
2023-01-18T06:11:00.269Z,90791.34
2023-01-18T06:16:07.692Z,90804.57
2023-01-18T06:21:14.408Z,90812.75
2023-01-18T06:26:21.067Z,90674.69
2023-01-18T06:31:27.788Z,90824.30
2023-01-18T06:36:34.444Z,90831.70
2023-01-18T06:41:41.279Z,90829.77
2023-01-18T06:46:48.110Z,90835.16
2023-01-18T06:51:54.855Z,90857.63
2023-01-18T06:57:01.576Z,90858.44
2023-01-18T07:02:08.989Z,90879.00
2023-01-18T07:07:16.726Z,90881.48
2023-01-18T07:12:23.687Z,90903.62
2023-01-18T07:17:30.375Z,90934.66
2023-01-18T07:22:37.109Z,90939.19
2023-01-18T07:27:44.428Z,90939.97
2023-01-18T07:32:53.669Z,90937.13
2023-01-18T07:38:00.434Z,90919.17
2023-01-18T07:43:07.100Z,90943.38
2023-01-18T07:48:13.781Z,90949.87
2023-01-18T07:53:20.984Z,90957.18
2023-01-18T07:58:27.769Z,90957.75
2023-01-18T08:03:34.875Z,90971.52
2023-01-18T08:08:42.249Z,90971.69
2023-01-18T08:13:50.862Z,90985.30
2023-01-18T08:18:57.637Z,90999.24
2023-01-18T08:24:04.499Z,91008.52
2023-01-18T08:29:11.204Z,91010.35
2023-01-18T08:34:17.920Z,91012.80
2023-01-18T08:39:24.599Z,91014.84
2023-01-18T08:44:31.291Z,91027.81
2023-01-18T08:49:38.365Z,91044.32
2023-01-18T08:54:45.029Z,91055.84
2023-01-18T08:59:51.754Z,91087.88
2023-01-18T09:04:58.593Z,91102.89
2023-01-18T09:10:05.598Z,91114.19
2023-01-18T09:15:12.418Z,91116.16
2023-01-18T09:20:19.414Z,91124.37
2023-01-18T09:25:26.123Z,91138.26
2023-01-18T09:30:33.727Z,91146.18
2023-01-18T09:35:40.384Z,91151.34
2023-01-18T09:40:47.890Z,91162.22
2023-01-18T09:45:55.849Z,91176.75
2023-01-18T09:51:09.893Z,91179.95
2023-01-18T09:56:28.966Z,91185.70
2023-01-18T10:01:37.815Z,91182.42
2023-01-18T10:06:49.177Z,91163.62
2023-01-18T10:12:04.835Z,91182.17
2023-01-18T10:17:15.231Z,91189.32
2023-01-18T10:22:41.066Z,91215.58
2023-01-18T10:27:52.471Z,91220.78
2023-01-18T10:33:03.253Z,91238.30
2023-01-18T10:38:16.813Z,91244.78
2023-01-18T10:43:25.709Z,91253.84
2023-01-18T10:48:36.143Z,91256.39
2023-01-18T10:53:43.192Z,91248.28
2023-01-18T10:58:59.220Z,91260.52
2023-01-18T11:04:24.933Z,91265.70
2023-01-18T11:09:44.892Z,91272.02
2023-01-18T11:14:52.435Z,91295.08
2023-01-18T11:20:19.478Z,91308.14
2023-01-18T11:25:27.995Z,91312.62
2023-01-18T11:30:35.396Z,91302.20
2023-01-18T11:35:42.811Z,91306.03
2023-01-18T11:40:49.991Z,91308.18
2023-01-18T11:46:00.592Z,91303.91
2023-01-18T11:51:21.888Z,91296.19
2023-01-18T11:56:48.095Z,91326.25
2023-01-18T12:02:17.025Z,91316.34
2023-01-18T12:07:59.067Z,91318.72
2023-01-18T12:13:38.186Z,91334.05
2023-01-18T12:19:25.382Z,91344.88
2023-01-18T12:24:56.223Z,91361.81
2023-01-18T12:30:34.673Z,91361.53
2023-01-18T12:36:03.783Z,91364.08
2023-01-18T12:41:41.686Z,91357.01
2023-01-18T12:47:01.945Z,91350.91
2023-01-18T12:52:18.442Z,91352.13
2023-01-18T12:57:18.088Z,91349.36
2023-01-18T13:02:45.233Z,91336.78
2023-01-18T13:08:03.603Z,91338.01
2023-01-18T13:13:14.310Z,91332.05
2023-01-18T13:18:37.557Z,91308.58
2023-01-18T13:23:57.428Z,91306.77
2023-01-18T13:29:30.133Z,91331.74
2023-01-18T13:34:47.981Z,91347.83
2023-01-18T13:39:51.386Z,91229.67
2023-01-18T13:45:22.612Z,91404.92
2023-01-18T13:50:38.483Z,91422.46
2023-01-18T13:56:09.033Z,91434.50
2023-01-18T14:01:24.516Z,91452.16
2023-01-18T14:06:42.107Z,91461.73
2023-01-18T14:11:58.494Z,91465.34
2023-01-18T14:17:19.727Z,91478.29
2023-01-18T14:23:04.015Z,91479.47
2023-01-18T14:28:18.193Z,91489.36
2023-01-18T14:33:32.529Z,91499.44
2023-01-18T14:38:40.933Z,91510.70
2023-01-18T14:43:49.814Z,91510.12
2023-01-18T14:48:59.470Z,91520.88
2023-01-18T14:54:07.456Z,91523.19
2023-01-18T14:59:28.056Z,91530.12
2023-01-18T15:04:37.741Z,91533.05
2023-01-18T15:09:45.982Z,91531.30
2023-01-18T15:14:54.724Z,91529.70
2023-01-18T15:20:06.096Z,91539.34
2023-01-18T15:25:29.049Z,91542.69
2023-01-18T15:30:35.754Z,91548.17
2023-01-18T15:35:43.009Z,91552.12
2023-01-18T15:41:06.239Z,91543.73
2023-01-18T15:46:16.746Z,91539.02
2023-01-18T15:51:25.535Z,91541.08
2023-01-18T15:56:33.663Z,91531.15
2023-01-18T16:01:41.799Z,91540.90
2023-01-18T16:06:48.542Z,91541.69
2023-01-18T16:12:00.740Z,91530.98
2023-01-18T16:17:22.761Z,91543.80
2023-01-18T16:22:37.875Z,91553.73
2023-01-18T16:27:59.974Z,91555.81
2023-01-18T16:33:19.394Z,91568.36
2023-01-18T16:38:25.988Z,91574.62
2023-01-18T16:43:34.913Z,91570.94
2023-01-18T16:48:41.780Z,91580.11
2023-01-18T16:53:49.801Z,91593.47
2023-01-18T16:58:56.541Z,91620.11
2023-01-18T17:04:03.784Z,91637.87
2023-01-18T17:09:24.108Z,91666.38
2023-01-18T17:14:30.915Z,91655.68
2023-01-18T17:19:38.298Z,91651.74
2023-01-18T17:24:45.537Z,91664.55
2023-01-18T17:29:52.879Z,91670.28
2023-01-18T17:35:00.115Z,91685.20
2023-01-18T17:40:17.261Z,91681.53
2023-01-18T17:45:16.136Z,91686.49
2023-01-18T17:50:24.657Z,91681.22
2023-01-18T17:55:35.097Z,91685.19
2023-01-18T18:00:40.085Z,91676.83
2023-01-18T18:05:46.931Z,91684.95
2023-01-18T18:10:53.839Z,91678.14
2023-01-18T18:16:00.797Z,91690.70
2023-01-18T18:21:10.362Z,91699.06
2023-01-18T18:26:17.222Z,91683.89
2023-01-18T18:31:23.982Z,91663.23
2023-01-18T18:36:30.772Z,91667.43
2023-01-18T18:41:37.517Z,91672.66
2023-01-18T18:46:44.419Z,91670.05
2023-01-18T18:51:51.198Z,91685.22
2023-01-18T18:56:58.330Z,91686.27
2023-01-18T19:02:05.643Z,91698.55
2023-01-18T19:07:12.781Z,91690.66
2023-01-18T19:12:19.583Z,91675.00
2023-01-18T19:17:30.633Z,91671.88
2023-01-18T19:22:35.894Z,91674.22
2023-01-18T19:27:43.579Z,91667.70
2023-01-18T19:32:54.452Z,91683.10
2023-01-18T19:38:01.291Z,91698.28
2023-01-18T19:43:08.846Z,91696.17
2023-01-18T19:48:15.665Z,91703.20
2023-01-18T19:53:23.242Z,91711.31
2023-01-18T19:58:31.814Z,91709.47
2023-01-18T20:03:39.078Z,91727.78
2023-01-18T20:08:46.249Z,91711.86
2023-01-18T20:13:53.917Z,91553.80
2023-01-18T20:19:00.897Z,91721.28
2023-01-18T20:24:08.254Z,91713.42
2023-01-18T20:29:15.006Z,91714.22
2023-01-18T20:34:22.108Z,91721.55
2023-01-18T20:39:28.862Z,91723.37
2023-01-18T20:44:36.365Z,91721.02
2023-01-18T20:49:43.651Z,91720.99
2023-01-18T20:54:50.443Z,91719.70
2023-01-18T20:59:57.505Z,91711.09
2023-01-18T21:05:04.607Z,91717.10
2023-01-18T21:10:13.099Z,91724.39
2023-01-18T21:15:20.403Z,91722.57
2023-01-18T21:20:28.877Z,91581.47
2023-01-18T21:25:35.906Z,91729.11
2023-01-18T21:30:42.645Z,91727.28
2023-01-18T21:35:49.461Z,91735.14
2023-01-18T21:40:56.197Z,91739.81
2023-01-18T21:46:03.228Z,91742.45
2023-01-18T21:51:28.312Z,91755.25
2023-01-18T21:56:35.046Z,91761.78
2023-01-18T22:01:48.240Z,91757.61
2023-01-18T22:06:57.472Z,91759.19
2023-01-18T22:12:04.405Z,91777.20
2023-01-18T22:17:11.234Z,91785.29
2023-01-18T22:22:17.940Z,91791.30
2023-01-18T22:27:24.911Z,91793.36
2023-01-18T22:32:31.737Z,91800.97
2023-01-18T22:37:38.480Z,91816.94
2023-01-18T22:42:45.503Z,91823.96
2023-01-18T22:47:52.276Z,91830.72
2023-01-18T22:52:59.414Z,91818.47
2023-01-18T22:58:06.278Z,91827.09
2023-01-18T23:03:13.998Z,91832.02
2023-01-18T23:08:21.530Z,91827.36
2023-01-18T23:13:28.345Z,91837.84
2023-01-18T23:18:35.288Z,91841.21
2023-01-18T23:23:42.031Z,91838.86
2023-01-18T23:28:49.382Z,91844.34
2023-01-18T23:33:56.166Z,91851.36
2023-01-18T23:39:20.652Z,91853.13
2023-01-18T23:44:45.447Z,91848.43
2023-01-18T23:50:09.708Z,91837.80
2023-01-18T23:55:15.799Z,91841.05
